Time,TemperatureF,DewpointF,PressureIn,WindDirection,WindDirectionDegrees,WindSpeedMPH,WindSpeedGustMPH,Humidity,HourlyPrecipIn,Conditions,Clouds,dailyrainin,SoftwareType,DateUTC
2013-06-24 00:00:00,74.6,73.1,30.19,SE,141,0.0,0.0,95,0.00,,,0.00,Wunderground v.1.15,2013-06-24 04:00:00,
2013-06-24 00:05:00,74.5,73.0,30.20,SE,141,0.0,0.0,95,0.00,,,0.00,Wunderground v.1.15,2013-06-24 04:05:00,
2013-06-24 00:10:00,74.4,72.9,30.20,South,173,0.0,0.0,95,0.00,,,0.00,Wunderground v.1.15,2013-06-24 04:10:00,
2013-06-24 00:20:00,74.1,72.3,30.20,South,175,0.0,5.0,94,0.00,,,0.00,Wunderground v.1.15,2013-06-24 04:20:00,
2013-06-24 00:25:00,74.0,72.2,30.20,South,182,1.0,5.0,94,0.00,,,0.00,Wunderground v.1.15,2013-06-24 04:25:00,
2013-06-24 00:30:00,73.9,72.1,30.20,South,182,1.0,1.0,94,0.00,,,0.00,Wunderground v.1.15,2013-06-24 04:30:00,
2013-06-24 00:35:00,73.8,72.0,30.20,South,182,1.0,2.0,94,0.00,,,0.00,Wunderground v.1.15,2013-06-24 04:35:00,
2013-06-24 00:45:00,73.7,71.9,30.20,South,182,1.0,5.0,94,0.00,,,0.00,Wunderground v.1.15,2013-06-24 04:45:00,
2013-06-24 00:55:00,73.6,71.8,30.20,South,185,1.0,3.0,94,0.00,,,0.00,Wunderground v.1.15,2013-06-24 04:55:00,
2013-06-24 01:00:00,73.6,71.8,30.20,South,185,1.0,1.0,94,0.00,,,0.00,Wunderground v.1.15,2013-06-24 05:00:00,
2013-06-24 01:05:00,73.5,71.7,30.20,South,185,1.0,1.0,94,0.00,,,0.00,Wunderground v.1.15,2013-06-24 05:05:00,
2013-06-24 01:15:00,73.3,71.5,30.21,South,186,1.0,1.0,94,0.00,,,0.00,Wunderground v.1.15,2013-06-24 05:15:00,
2013-06-24 01:25:00,73.2,71.4,30.20,South,186,0.0,1.0,94,0.00,,,0.00,Wunderground v.1.15,2013-06-24 05:25:00,
2013-06-24 01:30:00,73.1,71.3,30.21,South,186,0.0,0.0,94,0.00,,,0.00,Wunderground v.1.15,2013-06-24 05:30:00,
2013-06-24 01:35:00,73.0,71.2,30.21,South,186,0.0,0.0,94,0.00,,,0.00,Wunderground v.1.15,2013-06-24 05:35:00,
2013-06-24 01:50:00,72.7,71.2,30.22,South,186,0.0,0.0,95,0.00,,,0.00,Wunderground v.1.15,2013-06-24 05:50:00,
2013-06-24 02:00:00,72.7,71.2,30.21,South,186,0.0,0.0,95,0.00,,,0.00,Wunderground v.1.15,2013-06-24 06:00:00,
2013-06-24 02:10:00,72.5,71.0,30.22,South,186,0.0,0.0,95,0.00,,,0.00,Wunderground v.1.15,2013-06-24 06:10:00,
2013-06-24 02:20:00,72.4,70.9,30.21,South,186,0.0,0.0,95,0.00,,,0.00,Wunderground v.1.15,2013-06-24 06:20:00,
2013-06-24 02:25:00,72.3,70.8,30.21,South,186,0.0,0.0,95,0.00,,,0.00,Wunderground v.1.15,2013-06-24 06:25:00,
2013-06-24 02:40:00,72.3,70.8,30.21,South,186,0.0,0.0,95,0.00,,,0.00,Wunderground v.1.15,2013-06-24 06:40:00,
2013-06-24 02:50:00,72.2,70.7,30.21,South,186,0.0,0.0,95,0.00,,,0.00,Wunderground v.1.15,2013-06-24 06:50:00,
2013-06-24 03:00:00,72.2,70.7,30.21,South,186,0.0,0.0,95,0.00,,,0.00,Wunderground v.1.15,2013-06-24 07:00:00,
2013-06-24 03:05:00,72.2,70.7,30.21,South,186,0.0,0.0,95,0.00,,,0.00,Wunderground v.1.15,2013-06-24 07:05:00,
2013-06-24 03:15:00,72.2,71.0,30.21,South,186,0.0,0.0,96,0.00,,,0.00,Wunderground v.1.15,2013-06-24 07:15:00,
2013-06-24 03:20:00,72.3,71.1,30.22,South,186,0.0,0.0,96,0.00,,,0.00,Wunderground v.1.15,2013-06-24 07:20:00,
2013-06-24 03:30:00,72.4,71.2,30.22,South,186,0.0,0.0,96,0.00,,,0.00,Wunderground v.1.15,2013-06-24 07:30:00,
2013-06-24 03:35:00,72.4,71.2,30.22,South,186,0.0,0.0,96,0.00,,,0.00,Wunderground v.1.15,2013-06-24 07:35:00,
2013-06-24 03:45:00,72.5,71.3,30.21,South,186,0.0,0.0,96,0.00,,,0.00,Wunderground v.1.15,2013-06-24 07:45:00,
2013-06-24 03:55:00,72.6,71.4,30.21,South,186,0.0,0.0,96,0.00,,,0.00,Wunderground v.1.15,2013-06-24 07:55:00,
2013-06-24 04:00:00,72.6,71.1,30.21,South,186,0.0,0.0,95,0.00,,,0.00,Wunderground v.1.15,2013-06-24 08:00:00,
2013-06-24 04:05:00,72.7,71.5,30.21,South,186,0.0,0.0,96,0.00,,,0.00,Wunderground v.1.15,2013-06-24 08:05:00,
2013-06-24 04:15:00,72.7,71.2,30.21,South,186,0.0,0.0,95,0.00,,,0.00,Wunderground v.1.15,2013-06-24 08:15:00,
2013-06-24 04:25:00,72.8,71.3,30.21,South,186,0.0,0.0,95,0.00,,,0.00,Wunderground v.1.15,2013-06-24 08:25:00,
2013-06-24 04:35:00,72.8,71.6,30.21,South,186,0.0,1.0,96,0.00,,,0.00,Wunderground v.1.15,2013-06-24 08:35:00,
2013-06-24 04:45:00,72.8,71.6,30.21,South,186,1.0,1.0,96,0.00,,,0.00,Wunderground v.1.15,2013-06-24 08:45:00,
2013-06-24 04:50:00,72.9,71.7,30.21,South,191,2.0,2.0,96,0.00,,,0.00,Wunderground v.1.15,2013-06-24 08:50:00,
2013-06-24 05:00:00,72.9,71.7,30.21,SSW,196,2.0,2.0,96,0.00,,,0.00,Wunderground v.1.15,2013-06-24 09:00:00,
2013-06-24 05:05:00,73.0,71.8,30.21,SSW,196,2.0,2.0,96,0.00,,,0.00,Wunderground v.1.15,2013-06-24 09:05:00,
2013-06-24 05:15:00,73.0,71.8,30.21,South,188,2.0,6.0,96,0.00,,,0.00,Wunderground v.1.15,2013-06-24 09:15:00,
2013-06-24 05:25:00,73.1,71.9,30.21,South,187,1.0,2.0,96,0.00,,,0.00,Wunderground v.1.15,2013-06-24 09:25:00,
2013-06-24 05:30:00,73.1,71.9,30.20,South,189,1.0,1.0,96,0.00,,,0.00,Wunderground v.1.15,2013-06-24 09:30:00,
2013-06-24 05:40:00,73.1,71.9,30.20,South,180,2.0,2.0,96,0.00,,,0.00,Wunderground v.1.15,2013-06-24 09:40:00,
2013-06-24 05:50:00,73.1,71.9,30.20,South,180,1.0,1.0,96,0.00,,,0.00,Wunderground v.1.15,2013-06-24 09:50:00,
2013-06-24 06:00:00,73.2,72.0,30.20,South,181,0.0,0.0,96,0.00,,,0.00,Wunderground v.1.15,2013-06-24 10:00:00,
2013-06-24 06:05:00,73.2,72.0,30.21,South,186,1.0,1.0,96,0.00,,,0.00,Wunderground v.1.15,2013-06-24 10:05:00,
2013-06-24 06:15:00,73.2,72.0,30.21,South,186,1.0,2.0,96,0.00,,,0.00,Wunderground v.1.15,2013-06-24 10:15:00,
2013-06-24 06:25:00,73.2,72.0,30.21,ESE,117,0.0,1.0,96,0.00,,,0.00,Wunderground v.1.15,2013-06-24 10:25:00,
2013-06-24 06:30:00,73.2,72.0,30.21,ESE,113,0.0,0.0,96,0.00,,,0.00,Wunderground v.1.15,2013-06-24 10:30:00,
2013-06-24 06:40:00,73.3,72.1,30.22,SE,134,0.0,0.0,96,0.00,,,0.00,Wunderground v.1.15,2013-06-24 10:40:00,
2013-06-24 06:45:00,73.3,72.1,30.22,SE,134,0.0,0.0,96,0.00,,,0.00,Wunderground v.1.15,2013-06-24 10:45:00,
2013-06-24 06:55:00,73.2,72.0,30.21,SSE,159,0.0,0.0,96,0.00,,,0.00,Wunderground v.1.15,2013-06-24 10:55:00,
2013-06-24 07:05:00,73.4,72.2,30.21,SSE,161,0.0,5.0,96,0.00,,,0.00,Wunderground v.1.15,2013-06-24 11:05:00,
2013-06-24 07:15:00,73.5,72.0,30.21,SSE,161,0.0,0.0,95,0.00,,,0.00,Wunderground v.1.15,2013-06-24 11:15:00,
2013-06-24 07:30:00,73.7,72.5,30.21,SSE,153,1.0,5.0,96,0.00,,,0.00,Wunderground v.1.15,2013-06-24 11:30:00,
2013-06-24 07:40:00,73.8,72.3,30.22,SSE,161,2.0,4.0,95,0.00,,,0.00,Wunderground v.1.15,2013-06-24 11:40:00,
2013-06-24 07:50:00,74.1,72.6,30.22,SSE,163,1.0,1.0,95,0.00,,,0.00,Wunderground v.1.15,2013-06-24 11:50:00,
2013-06-24 08:00:00,74.6,73.1,30.22,SSW,192,2.0,2.0,95,0.00,,,0.00,Wunderground v.1.15,2013-06-24 12:00:00,
2013-06-24 08:05:00,74.8,73.0,30.22,SSW,195,2.0,2.0,94,0.00,,,0.00,Wunderground v.1.15,2013-06-24 12:05:00,
2013-06-24 08:15:00,74.9,73.1,30.22,SSW,196,2.0,4.0,94,0.00,,,0.00,Wunderground v.1.15,2013-06-24 12:15:00,
2013-06-24 08:25:00,75.1,73.3,30.22,SW,218,1.0,2.0,94,0.00,,,0.00,Wunderground v.1.15,2013-06-24 12:25:00,
2013-06-24 08:35:00,75.3,73.1,30.22,SW,218,1.0,4.0,93,0.00,,,0.00,Wunderground v.1.15,2013-06-24 12:35:00,
2013-06-24 08:45:00,75.9,73.4,30.22,South,169,2.0,2.0,92,0.00,,,0.00,Wunderground v.1.15,2013-06-24 12:45:00,
2013-06-24 08:55:00,76.5,74.0,30.22,South,186,2.0,5.0,92,0.00,,,0.00,Wunderground v.1.15,2013-06-24 12:55:00,
2013-06-24 09:05:00,77.0,73.8,30.22,South,188,2.0,5.0,90,0.00,,,0.00,Wunderground v.1.15,2013-06-24 13:05:00,
2013-06-24 09:15:00,77.1,73.6,30.22,SSW,203,2.0,6.0,89,0.00,,,0.00,Wunderground v.1.15,2013-06-24 13:15:00,
2013-06-24 09:30:00,77.5,74.0,30.22,South,180,1.0,1.0,89,0.00,,,0.00,Wunderground v.1.15,2013-06-24 13:30:00,
2013-06-24 09:45:00,77.6,73.8,30.23,South,183,1.0,4.0,88,0.00,,,0.00,Wunderground v.1.15,2013-06-24 13:45:00,
2013-06-24 09:55:00,78.0,74.5,30.23,South,181,2.0,2.0,89,0.00,,,0.00,Wunderground v.1.15,2013-06-24 13:55:00,
2013-06-24 10:05:00,78.9,74.7,30.23,SSW,211,4.0,6.0,87,0.00,,,0.00,Wunderground v.1.15,2013-06-24 14:05:00,
2013-06-24 10:15:00,79.5,74.9,30.23,SSW,203,2.0,5.0,86,0.00,,,0.00,Wunderground v.1.15,2013-06-24 14:15:00,
2013-06-24 10:25:00,79.4,74.5,30.23,SSW,195,2.0,3.0,85,0.00,,,0.00,Wunderground v.1.15,2013-06-24 14:25:00,
2013-06-24 10:30:00,79.3,74.0,30.23,South,184,1.0,5.0,84,0.00,,,0.00,Wunderground v.1.15,2013-06-24 14:30:00,
2013-06-24 10:40:00,79.5,74.6,30.23,South,189,1.0,1.0,85,0.00,,,0.00,Wunderground v.1.15,2013-06-24 14:40:00,
2013-06-24 10:50:00,79.8,74.5,30.23,SSW,196,2.0,2.0,84,0.00,,,0.00,Wunderground v.1.15,2013-06-24 14:50:00,
2013-06-24 11:00:00,80.6,75.0,30.23,SSE,161,2.0,6.0,83,0.00,,,0.00,Wunderground v.1.15,2013-06-24 15:00:00,
2013-06-24 11:05:00,80.3,74.7,30.23,SE,136,3.0,6.0,83,0.00,,,0.00,Wunderground v.1.15,2013-06-24 15:05:00,
2013-06-24 11:15:00,80.9,74.9,30.23,South,189,2.0,3.0,82,0.00,,,0.00,Wunderground v.1.15,2013-06-24 15:15:00,
2013-06-24 11:25:00,81.0,75.3,30.23,South,189,1.0,5.0,83,0.00,,,0.00,Wunderground v.1.15,2013-06-24 15:25:00,
2013-06-24 11:35:00,81.3,74.9,30.22,SSE,159,1.0,1.0,81,0.00,,,0.00,Wunderground v.1.15,2013-06-24 15:35:00,
2013-06-24 11:45:00,81.3,74.5,30.22,SSW,204,1.0,1.0,80,0.00,,,0.00,Wunderground v.1.15,2013-06-24 15:45:00,
2013-06-24 11:50:00,81.4,74.6,30.22,SSW,204,0.0,0.0,80,0.00,,,0.00,Wunderground v.1.15,2013-06-24 15:50:00,
2013-06-24 12:00:00,82.3,75.1,30.22,SSW,202,1.0,1.0,79,0.00,,,0.00,Wunderground v.1.15,2013-06-24 16:00:00,
2013-06-24 12:05:00,82.5,75.3,30.22,SSW,200,1.0,1.0,79,0.00,,,0.00,Wunderground v.1.15,2013-06-24 16:05:00,
2013-06-24 12:20:00,83.2,74.8,30.22,WSW,237,2.0,5.0,76,0.00,,,0.00,Wunderground v.1.15,2013-06-24 16:20:00,
2013-06-24 12:25:00,83.4,75.4,30.22,SW,228,1.0,5.0,77,0.00,,,0.00,Wunderground v.1.15,2013-06-24 16:25:00,
2013-06-24 12:35:00,83.2,76.0,30.21,South,178,1.0,5.0,79,0.00,,,0.00,Wunderground v.1.15,2013-06-24 16:35:00,
2013-06-24 12:45:00,82.0,75.2,30.22,West,267,2.0,8.0,80,0.00,,,0.00,Wunderground v.1.15,2013-06-24 16:45:00,
2013-06-24 12:55:00,80.3,75.0,30.21,WNW,282,2.0,8.0,84,0.00,,,0.00,Wunderground v.1.15,2013-06-24 16:55:00,
2013-06-24 13:00:00,79.9,75.3,30.21,WNW,282,0.0,0.0,86,0.00,,,0.01,Wunderground v.1.15,2013-06-24 17:00:00,
2013-06-24 13:05:00,79.8,75.9,30.21,WNW,282,0.0,0.0,88,0.00,,,0.01,Wunderground v.1.15,2013-06-24 17:05:00,
2013-06-24 13:20:00,78.6,74.4,30.21,East,90,1.0,1.0,87,0.33,,,0.06,Wunderground v.1.15,2013-06-24 17:20:00,
2013-06-24 13:30:00,76.6,72.4,30.21,SSE,167,4.0,4.0,87,0.70,,,0.14,Wunderground v.1.15,2013-06-24 17:30:00,
2013-06-24 13:35:00,75.4,71.9,30.20,SSE,165,4.0,4.0,89,0.14,,,0.16,Wunderground v.1.15,2013-06-24 17:35:00,
2013-06-24 13:45:00,75.8,73.3,30.19,East,98,1.0,2.0,92,0.04,,,0.16,Wunderground v.1.15,2013-06-24 17:45:00,
2013-06-24 13:55:00,77.6,75.7,30.19,East,80,0.0,0.0,94,0.00,,,0.16,Wunderground v.1.15,2013-06-24 17:55:00,
2013-06-24 14:05:00,78.9,75.0,30.19,SE,128,0.0,5.0,88,0.00,,,0.16,Wunderground v.1.15,2013-06-24 18:05:00,
2013-06-24 14:15:00,79.9,75.0,30.19,ESE,122,2.0,6.0,85,0.00,,,0.16,Wunderground v.1.15,2013-06-24 18:15:00,
2013-06-24 14:30:00,80.1,75.2,30.18,SE,140,1.0,1.0,85,0.00,,,0.16,Wunderground v.1.15,2013-06-24 18:30:00,
2013-06-24 14:40:00,81.4,75.0,30.17,East,95,1.0,6.0,81,0.00,,,0.16,Wunderground v.1.15,2013-06-24 18:40:00,
2013-06-24 14:50:00,82.0,73.7,30.16,SE,127,2.0,4.0,76,0.00,,,0.16,Wunderground v.1.15,2013-06-24 18:50:00,
2013-06-24 15:00:00,82.6,75.4,30.15,South,182,1.0,1.0,79,0.00,,,0.16,Wunderground v.1.15,2013-06-24 19:00:00,
2013-06-24 15:05:00,82.7,75.1,30.15,South,182,0.0,1.0,78,0.00,,,0.16,Wunderground v.1.15,2013-06-24 19:05:00,
2013-06-24 15:15:00,82.5,75.3,30.14,SSE,165,3.0,5.0,79,0.00,,,0.16,Wunderground v.1.15,2013-06-24 19:15:00,
2013-06-24 15:25:00,82.9,76.5,30.14,SE,145,2.0,3.0,81,0.00,,,0.16,Wunderground v.1.15,2013-06-24 19:25:00,
2013-06-24 15:35:00,83.2,76.0,30.13,South,171,3.0,4.0,79,0.00,,,0.16,Wunderground v.1.15,2013-06-24 19:35:00,
2013-06-24 15:40:00,83.4,76.2,30.13,SSE,160,3.0,3.0,79,0.00,,,0.16,Wunderground v.1.15,2013-06-24 19:40:00,
2013-06-24 15:50:00,83.9,76.3,30.15,South,177,4.0,6.0,78,0.00,,,0.16,Wunderground v.1.15,2013-06-24 19:50:00,
2013-06-24 16:00:00,84.3,77.1,30.15,ESE,117,2.0,2.0,79,0.00,,,0.16,Wunderground v.1.15,2013-06-24 20:00:00,
2013-06-24 16:05:00,84.7,76.7,30.16,SSE,161,3.0,3.0,77,0.00,,,0.16,Wunderground v.1.15,2013-06-24 20:05:00,
2013-06-24 16:15:00,84.4,76.0,30.15,South,184,4.0,4.0,76,0.00,,,0.16,Wunderground v.1.15,2013-06-24 20:15:00,
2013-06-24 16:20:00,83.9,75.9,30.15,SSW,198,5.0,8.0,77,0.00,,,0.16,Wunderground v.1.15,2013-06-24 20:20:00,
2013-06-24 16:25:00,83.8,75.8,30.15,SE,145,5.0,8.0,77,0.00,,,0.16,Wunderground v.1.15,2013-06-24 20:25:00,
2013-06-24 16:35:00,83.4,75.8,30.14,SE,130,4.0,5.0,78,0.00,,,0.16,Wunderground v.1.15,2013-06-24 20:35:00,
2013-06-24 16:40:00,83.2,74.4,30.14,SSE,167,4.0,8.0,75,0.00,,,0.16,Wunderground v.1.15,2013-06-24 20:40:00,
2013-06-24 16:50:00,82.4,74.1,30.14,South,175,6.0,6.0,76,0.00,,,0.16,Wunderground v.1.15,2013-06-24 20:50:00,
2013-06-24 17:00:00,82.4,74.1,30.13,SSE,162,3.0,3.0,76,0.00,,,0.16,Wunderground v.1.15,2013-06-24 21:00:00,
2013-06-24 17:05:00,82.4,74.1,30.13,South,181,4.0,9.0,76,0.00,,,0.16,Wunderground v.1.15,2013-06-24 21:05:00,
2013-06-24 17:15:00,82.5,74.6,30.13,SE,133,5.0,9.0,77,0.00,,,0.16,Wunderground v.1.15,2013-06-24 21:15:00,
2013-06-24 17:25:00,82.3,74.7,30.13,South,186,4.0,9.0,78,0.00,,,0.16,Wunderground v.1.15,2013-06-24 21:25:00,
2013-06-24 17:35:00,82.2,75.4,30.12,SSW,210,4.0,6.0,80,0.00,,,0.16,Wunderground v.1.15,2013-06-24 21:35:00,
2013-06-24 17:55:00,81.9,75.1,30.11,South,180,6.0,8.0,80,0.00,,,0.16,Wunderground v.1.15,2013-06-24 21:55:00,
2013-06-24 18:05:00,81.9,75.5,30.11,SE,145,4.0,6.0,81,0.00,,,0.16,Wunderground v.1.15,2013-06-24 22:05:00,
2013-06-24 18:15:00,81.8,75.4,30.11,South,175,3.0,7.0,81,0.00,,,0.16,Wunderground v.1.15,2013-06-24 22:15:00,
2013-06-24 18:20:00,81.6,75.6,30.11,South,181,2.0,2.0,82,0.00,,,0.16,Wunderground v.1.15,2013-06-24 22:20:00,
2013-06-24 18:30:00,81.1,75.4,30.12,SSE,167,4.0,4.0,83,0.00,,,0.16,Wunderground v.1.15,2013-06-24 22:30:00,
2013-06-24 18:45:00,80.7,75.1,30.12,SSW,203,4.0,4.0,83,0.00,,,0.16,Wunderground v.1.15,2013-06-24 22:45:00,
2013-06-24 19:00:00,80.1,74.8,30.13,SSW,213,2.0,2.0,84,0.00,,,0.16,Wunderground v.1.15,2013-06-24 23:00:00,
2013-06-24 19:05:00,79.9,74.6,30.13,SSW,196,2.0,2.0,84,0.00,,,0.16,Wunderground v.1.15,2013-06-24 23:05:00,
2013-06-24 19:15:00,79.5,74.2,30.12,SSE,155,2.0,3.0,84,0.00,,,0.16,Wunderground v.1.15,2013-06-24 23:15:00,
2013-06-24 19:25:00,79.3,74.4,30.12,SSE,161,1.0,1.0,85,0.00,,,0.16,Wunderground v.1.15,2013-06-24 23:25:00,
2013-06-24 19:35:00,79.0,74.5,30.13,South,173,1.0,1.0,86,0.00,,,0.16,Wunderground v.1.15,2013-06-24 23:35:00,
2013-06-24 19:45:00,78.7,74.5,30.12,SE,128,1.0,2.0,87,0.00,,,0.16,Wunderground v.1.15,2013-06-24 23:45:00,
2013-06-24 19:50:00,78.5,74.3,30.13,SSW,192,2.0,2.0,87,0.00,,,0.16,Wunderground v.1.15,2013-06-24 23:50:00,
2013-06-24 20:00:00,78.2,74.4,30.12,South,188,2.0,2.0,88,0.00,,,0.16,Wunderground v.1.15,2013-06-25 00:00:00,
2013-06-24 20:05:00,78.0,74.2,30.12,South,188,2.0,4.0,88,0.00,,,0.16,Wunderground v.1.15,2013-06-25 00:05:00,
2013-06-24 20:15:00,77.6,74.1,30.12,South,181,1.0,2.0,89,0.00,,,0.16,Wunderground v.1.15,2013-06-25 00:15:00,
2013-06-24 20:20:00,77.5,74.0,30.12,South,188,1.0,1.0,89,0.00,,,0.16,Wunderground v.1.15,2013-06-25 00:20:00,
2013-06-24 20:30:00,77.2,74.0,30.12,South,189,1.0,1.0,90,0.00,,,0.16,Wunderground v.1.15,2013-06-25 00:30:00,
2013-06-24 20:45:00,76.8,73.6,30.13,South,189,0.0,2.0,90,0.00,,,0.16,Wunderground v.1.15,2013-06-25 00:45:00,
2013-06-24 20:55:00,76.6,73.4,30.13,South,188,1.0,1.0,90,0.00,,,0.16,Wunderground v.1.15,2013-06-25 00:55:00,
2013-06-24 21:10:00,76.3,73.1,30.14,South,188,0.0,0.0,90,0.00,,,0.16,Wunderground v.1.15,2013-06-25 01:10:00,
2013-06-24 21:20:00,76.2,73.1,30.13,South,188,1.0,1.0,90,0.00,,,0.16,Wunderground v.1.15,2013-06-25 01:20:00,
2013-06-24 21:25:00,76.0,72.9,30.13,South,186,0.0,1.0,90,0.00,,,0.16,Wunderground v.1.15,2013-06-25 01:25:00,
2013-06-24 21:35:00,75.8,73.0,30.13,South,186,0.0,1.0,91,0.00,,,0.16,Wunderground v.1.15,2013-06-25 01:35:00,
2013-06-24 21:45:00,75.6,72.8,30.13,South,186,0.0,0.0,91,0.00,,,0.16,Wunderground v.1.15,2013-06-25 01:45:00,
2013-06-24 21:55:00,75.4,72.6,30.13,South,186,0.0,0.0,91,0.00,,,0.16,Wunderground v.1.15,2013-06-25 01:55:00,
2013-06-24 22:05:00,75.2,72.7,30.14,South,188,0.0,2.0,92,0.00,,,0.16,Wunderground v.1.15,2013-06-25 02:05:00,
2013-06-24 22:15:00,75.2,72.7,30.14,SSW,193,1.0,1.0,92,0.00,,,0.16,Wunderground v.1.15,2013-06-25 02:15:00,
2013-06-24 22:20:00,75.1,72.6,30.14,SSW,193,0.0,0.0,92,0.00,,,0.16,Wunderground v.1.15,2013-06-25 02:20:00,
2013-06-24 22:30:00,74.9,72.4,30.14,SSW,199,1.0,1.0,92,0.00,,,0.16,Wunderground v.1.15,2013-06-25 02:30:00,
2013-06-24 22:40:00,74.8,72.3,30.14,SSW,199,0.0,0.0,92,0.00,,,0.16,Wunderground v.1.15,2013-06-25 02:40:00,
2013-06-24 22:50:00,74.7,72.2,30.14,SSW,199,0.0,0.0,92,0.00,,,0.16,Wunderground v.1.15,2013-06-25 02:50:00,
2013-06-24 23:00:00,74.6,72.1,30.14,SSW,199,0.0,0.0,92,0.00,,,0.16,Wunderground v.1.15,2013-06-25 03:00:00,
2013-06-24 23:05:00,74.6,72.1,30.15,SSW,199,0.0,0.0,92,0.00,,,0.16,Wunderground v.1.15,2013-06-25 03:05:00,
2013-06-24 23:15:00,74.4,71.9,30.15,SSW,199,0.0,0.0,92,0.00,,,0.16,Wunderground v.1.15,2013-06-25 03:15:00,
2013-06-24 23:30:00,74.2,72.0,30.15,SSW,199,0.0,0.0,93,0.00,,,0.16,Wunderground v.1.15,2013-06-25 03:30:00,
2013-06-24 23:40:00,74.1,71.9,30.15,SSW,199,0.0,0.0,93,0.00,,,0.16,Wunderground v.1.15,2013-06-25 03:40:00,